createdAt,value
2022-12-09T00:02:17.378Z,0.10
2022-12-09T00:04:46.706Z,0.13
2022-12-09T00:07:15.315Z,0.02
2022-12-09T00:09:47.790Z,0.01
2022-12-09T00:12:20.785Z,-0.02
2022-12-09T00:14:50.811Z,-0.06
2022-12-09T00:17:19.015Z,-0.08
2022-12-09T00:19:47.905Z,-0.05
2022-12-09T00:22:17.610Z,-0.10
2022-12-09T00:24:46.254Z,-0.15
2022-12-09T00:27:15.260Z,-0.11
2022-12-09T00:29:46.507Z,-0.16
2022-12-09T00:32:17.494Z,-0.12
2022-12-09T00:34:48.064Z,-0.13
2022-12-09T00:37:17.521Z,-0.13
2022-12-09T00:39:46.872Z,-0.09
2022-12-09T00:42:15.343Z,-0.09
2022-12-09T00:44:48.753Z,-0.12
2022-12-09T00:47:16.891Z,-0.12
2022-12-09T00:49:45.827Z,-0.16
2022-12-09T00:52:15.302Z,-0.16
2022-12-09T00:54:45.603Z,-0.19
2022-12-09T00:57:15.737Z,-0.14
2022-12-09T01:03:04.405Z,-0.18
2022-12-09T01:05:37.014Z,-0.10
2022-12-09T01:08:08.385Z,-0.18
2022-12-09T01:10:40.441Z,-0.18
2022-12-09T01:13:09.684Z,-0.27
2022-12-09T01:15:39.646Z,-0.10
2022-12-09T01:18:09.595Z,-0.17
2022-12-09T01:20:40.415Z,-0.06
2022-12-09T01:23:09.390Z,-0.08
2022-12-09T01:25:39.466Z,-0.07
2022-12-09T01:28:08.465Z,-0.15
2022-12-09T01:30:39.606Z,-0.19
2022-12-09T01:33:09.902Z,-0.18
2022-12-09T01:35:41.596Z,-0.23
2022-12-09T01:38:09.684Z,-0.22
2022-12-09T01:40:38.774Z,-0.28
2022-12-09T01:43:14.532Z,-0.31
2022-12-09T01:45:47.867Z,-0.33
2022-12-09T01:48:18.791Z,-0.29
2022-12-09T01:50:52.241Z,-0.32
2022-12-09T01:53:23.884Z,-0.34
2022-12-09T01:55:55.649Z,-0.34
2022-12-09T01:58:25.959Z,-0.35
2022-12-09T02:01:00.140Z,-0.39
2022-12-09T02:03:28.503Z,-0.36
2022-12-09T02:05:58.383Z,-0.36
2022-12-09T02:08:27.835Z,-0.32
2022-12-09T02:11:08.440Z,-0.34
2022-12-09T02:13:49.079Z,-0.36
2022-12-09T02:16:22.790Z,-0.37
2022-12-09T02:18:56.567Z,-0.39
2022-12-09T02:21:28.749Z,-0.28
2022-12-09T02:24:04.203Z,-0.36
2022-12-09T02:26:42.559Z,-0.34
2022-12-09T02:29:40.576Z,-0.37
2022-12-09T02:32:37.847Z,-0.31
2022-12-09T02:35:17.466Z,-0.23
2022-12-09T02:37:52.160Z,-0.22
2022-12-09T02:40:24.427Z,-0.15
2022-12-09T02:42:52.806Z,-0.10
2022-12-09T02:45:22.539Z,-0.06
2022-12-09T02:47:55.441Z,0.02
2022-12-09T02:50:29.387Z,-0.04
2022-12-09T02:53:00.772Z,0.09
2022-12-09T02:55:32.810Z,0.08
2022-12-09T02:58:02.264Z,0.08
2022-12-09T03:00:34.159Z,0.06
2022-12-09T03:03:05.821Z,0.13
2022-12-09T03:05:46.672Z,0.15
2022-12-09T03:08:25.852Z,0.10
2022-12-09T03:10:57.890Z,0.11
2022-12-09T03:13:36.603Z,0.20
2022-12-09T03:16:10.858Z,0.20
2022-12-09T03:18:42.514Z,0.26
2022-12-09T03:21:13.436Z,0.13
2022-12-09T03:23:42.610Z,0.27
2022-12-09T03:26:11.267Z,0.22
2022-12-09T03:28:43.108Z,0.09
2022-12-09T03:31:15.711Z,0.09
2022-12-09T03:33:45.596Z,0.04
2022-12-09T03:36:19.179Z,0.01
2022-12-09T03:38:49.039Z,-0.01
2022-12-09T03:41:21.861Z,0.02
2022-12-09T03:43:53.802Z,0.03
2022-12-09T03:46:22.954Z,0.00
2022-12-09T03:48:51.384Z,-0.02
2022-12-09T03:51:26.375Z,0.22
2022-12-09T03:53:57.802Z,0.08
2022-12-09T03:56:29.351Z,0.05
2022-12-09T03:59:00.602Z,0.03
2022-12-09T04:01:29.926Z,-0.01
2022-12-09T04:03:59.396Z,-0.06
2022-12-09T04:06:29.383Z,-0.03
2022-12-09T04:09:02.219Z,-0.04
2022-12-09T04:11:32.619Z,-0.03
2022-12-09T04:14:02.501Z,-0.02
2022-12-09T04:16:30.986Z,0.06
2022-12-09T04:18:59.387Z,0.03
2022-12-09T04:21:28.802Z,0.07
2022-12-09T04:24:00.341Z,-0.01
2022-12-09T04:26:29.951Z,0.02
2022-12-09T04:28:58.737Z,0.02
2022-12-09T04:31:27.485Z,0.04
2022-12-09T04:33:55.662Z,0.02
2022-12-09T04:36:27.046Z,-0.03
2022-12-09T04:38:56.539Z,0.01
2022-12-09T04:41:27.088Z,-0.06
2022-12-09T04:43:56.031Z,-0.01
2022-12-09T04:46:24.822Z,0.08
2022-12-09T04:48:54.893Z,-0.03
2022-12-09T04:51:23.046Z,-0.05
2022-12-09T04:53:51.437Z,-0.02
2022-12-09T04:56:28.061Z,0.03
2022-12-09T04:58:56.237Z,0.01
2022-12-09T05:01:30.621Z,-0.05
2022-12-09T05:04:00.530Z,-0.10
2022-12-09T05:06:29.872Z,-0.10
2022-12-09T05:08:59.717Z,-0.07
2022-12-09T05:11:32.381Z,-0.08
2022-12-09T05:14:01.166Z,-0.15
2022-12-09T05:16:30.526Z,-0.11
2022-12-09T05:19:01.435Z,-0.17
2022-12-09T05:21:30.260Z,-0.22
2022-12-09T05:23:59.584Z,-0.23
2022-12-09T05:26:30.097Z,-0.24
2022-12-09T05:28:58.568Z,-0.28
2022-12-09T05:31:28.357Z,-0.32
2022-12-09T05:33:56.978Z,-0.29
2022-12-09T05:36:27.844Z,-0.36
2022-12-09T05:38:56.503Z,-0.27
2022-12-09T05:41:27.928Z,-0.25
2022-12-09T05:43:59.520Z,-0.38
2022-12-09T05:46:29.876Z,-0.45
2022-12-09T05:49:02.112Z,-0.49
2022-12-09T05:51:34.044Z,-0.58
2022-12-09T05:54:04.557Z,-0.63
2022-12-09T05:56:35.573Z,-0.65
2022-12-09T05:59:07.314Z,-0.68
2022-12-09T06:01:36.542Z,-0.75
2022-12-09T06:04:04.971Z,-0.73
2022-12-09T06:06:33.603Z,-0.71
2022-12-09T06:09:08.643Z,-0.67
2022-12-09T06:11:39.499Z,-0.63
2022-12-09T06:14:11.346Z,-0.55
2022-12-09T06:16:43.239Z,-0.57
2022-12-09T06:19:13.296Z,-0.53
2022-12-09T06:21:43.049Z,-0.48
2022-12-09T06:24:11.719Z,-0.47
2022-12-09T06:26:43.557Z,-0.63
2022-12-09T06:29:13.399Z,-0.62
2022-12-09T06:31:42.098Z,-0.65
2022-12-09T06:34:11.871Z,-0.60
2022-12-09T06:36:40.592Z,-0.68
2022-12-09T06:39:11.047Z,-0.58
2022-12-09T06:41:42.561Z,-0.62
2022-12-09T06:44:23.201Z,-0.69
2022-12-09T06:46:53.032Z,-0.69
2022-12-09T06:49:21.524Z,-0.64
2022-12-09T06:51:50.031Z,-0.57
2022-12-09T06:54:23.087Z,-0.55
2022-12-09T06:56:53.250Z,-0.50
2022-12-09T06:59:23.601Z,-0.35
2022-12-09T07:01:52.572Z,-0.45
2022-12-09T07:04:21.505Z,-0.48
2022-12-09T07:06:50.463Z,-0.37
2022-12-09T07:09:20.979Z,-0.47
2022-12-09T07:11:50.324Z,-0.50
2022-12-09T07:14:20.780Z,-0.60
2022-12-09T07:16:53.701Z,-0.66
2022-12-09T07:19:27.899Z,-0.64
2022-12-09T07:21:57.313Z,-0.58
2022-12-09T07:24:29.775Z,-0.63
2022-12-09T07:27:07.552Z,-0.60
2022-12-09T07:29:40.234Z,-0.57
2022-12-09T07:32:11.858Z,-0.63
2022-12-09T07:34:40.651Z,-0.58
2022-12-09T07:37:10.188Z,-0.62
2022-12-09T07:39:40.035Z,-0.67
2022-12-09T07:42:17.389Z,-0.64
2022-12-09T07:44:56.520Z,-0.54
2022-12-09T07:47:32.640Z,-0.39
2022-12-09T07:50:06.729Z,-0.40
2022-12-09T07:52:43.533Z,-0.48
2022-12-09T07:55:19.795Z,-0.47
2022-12-09T07:57:49.792Z,-0.55
2022-12-09T08:00:20.831Z,-0.57
2022-12-09T08:02:53.009Z,-0.45
2022-12-09T08:05:22.637Z,-0.34
2022-12-09T08:07:52.582Z,-0.43
2022-12-09T08:10:21.500Z,-0.38
2022-12-09T08:12:51.187Z,-0.26
2022-12-09T08:15:20.891Z,-0.28
2022-12-09T08:17:51.008Z,-0.09
2022-12-09T08:20:25.872Z,-0.19
2022-12-09T08:23:00.034Z,-0.19
2022-12-09T08:25:30.161Z,-0.15
2022-12-09T08:28:00.742Z,-0.29
2022-12-09T08:30:29.800Z,0.06
2022-12-09T08:33:01.682Z,-0.01
2022-12-09T08:35:31.227Z,-0.10
2022-12-09T08:38:00.400Z,-0.15
2022-12-09T08:40:29.516Z,-0.11
2022-12-09T08:43:00.016Z,-0.10
2022-12-09T08:45:28.257Z,-0.04
2022-12-09T08:47:56.425Z,-0.12
2022-12-09T08:50:27.490Z,-0.21
2022-12-09T08:52:56.004Z,-0.09
2022-12-09T08:55:24.701Z,-0.01
2022-12-09T08:57:54.662Z,0.13
2022-12-09T09:00:23.464Z,0.04
2022-12-09T09:02:53.084Z,0.07
2022-12-09T09:05:21.985Z,-0.12
2022-12-09T09:08:02.695Z,-0.13
2022-12-09T09:10:35.040Z,0.01
2022-12-09T09:13:10.421Z,-0.08
2022-12-09T09:15:40.536Z,0.08
2022-12-09T09:18:09.325Z,-0.07
2022-12-09T09:20:37.837Z,-0.27
2022-12-09T09:23:09.431Z,-0.16
2022-12-09T09:25:44.895Z,-0.13
2022-12-09T09:28:16.868Z,-0.15
2022-12-09T09:30:51.987Z,0.02
2022-12-09T09:33:32.734Z,0.00
2022-12-09T09:36:09.956Z,-0.11
2022-12-09T09:38:40.922Z,-0.06
2022-12-09T09:41:20.481Z,0.02
2022-12-09T09:43:53.278Z,0.12
2022-12-09T09:46:38.881Z,0.29
2022-12-09T09:49:13.099Z,0.39
2022-12-09T09:51:42.141Z,0.21
2022-12-09T09:54:16.209Z,0.15
2022-12-09T09:56:53.670Z,0.06
2022-12-09T09:59:30.938Z,-0.10
2022-12-09T10:02:07.699Z,-0.29
2022-12-09T10:04:45.986Z,-0.23
2022-12-09T10:07:18.464Z,-0.10
2022-12-09T10:09:53.935Z,-0.17
2022-12-09T10:12:29.273Z,0.04
2022-12-09T10:15:02.603Z,0.20
2022-12-09T10:17:36.516Z,0.38
2022-12-09T10:20:11.602Z,0.62
2022-12-09T10:22:45.737Z,0.48
2022-12-09T10:25:22.066Z,0.71
2022-12-09T10:27:55.478Z,0.65
2022-12-09T10:30:24.667Z,0.61
2022-12-09T10:32:55.701Z,0.29
2022-12-09T10:35:30.846Z,0.19
2022-12-09T10:38:09.034Z,0.17
2022-12-09T10:40:47.105Z,0.17
2022-12-09T10:43:39.149Z,0.13
2022-12-09T10:46:20.512Z,0.09
2022-12-09T10:48:55.961Z,0.23
2022-12-09T10:51:26.318Z,0.20
2022-12-09T10:53:57.688Z,0.12
2022-12-09T10:56:31.532Z,0.22
2022-12-09T10:59:11.558Z,0.09
2022-12-09T11:01:50.877Z,0.20
2022-12-09T11:04:26.830Z,0.01
2022-12-09T11:07:00.132Z,-0.08
2022-12-09T11:09:34.590Z,0.03
2022-12-09T11:12:08.719Z,-0.05
2022-12-09T11:14:40.584Z,-0.09
2022-12-09T11:17:17.853Z,0.09
2022-12-09T11:19:48.915Z,0.07
2022-12-09T11:22:26.094Z,0.18
2022-12-09T11:24:57.637Z,0.20
2022-12-09T11:27:37.478Z,0.46
2022-12-09T11:30:13.203Z,0.50
2022-12-09T11:32:56.956Z,0.25
2022-12-09T11:35:32.252Z,0.22
2022-12-09T11:38:06.200Z,0.20
2022-12-09T11:40:38.270Z,0.41
2022-12-09T11:43:10.520Z,0.29
2022-12-09T11:45:40.076Z,0.50
2022-12-09T11:48:33.701Z,0.28
2022-12-09T11:50:59.413Z,0.25
2022-12-09T11:53:30.286Z,0.28
2022-12-09T11:56:04.087Z,-0.14
2022-12-09T11:58:39.748Z,-0.31
2022-12-09T12:01:13.077Z,-0.32
2022-12-09T12:03:47.564Z,-0.31
2022-12-09T12:06:22.545Z,-0.16
2022-12-09T12:08:58.325Z,0.10
2022-12-09T12:11:29.982Z,0.15
2022-12-09T12:14:04.258Z,0.31
2022-12-09T12:16:47.317Z,0.23
2022-12-09T12:19:24.710Z,0.49
2022-12-09T12:22:17.609Z,0.49
2022-12-09T12:25:00.299Z,0.32
2022-12-09T12:27:40.760Z,0.44
2022-12-09T12:30:12.268Z,0.42
2022-12-09T12:33:40.822Z,0.42
2022-12-09T12:36:00.729Z,0.11
2022-12-09T12:38:41.688Z,0.00
2022-12-09T12:41:14.462Z,-0.11
2022-12-09T12:44:16.121Z,0.02
2022-12-09T12:46:55.554Z,-0.16
2022-12-09T12:49:46.235Z,-0.22
2022-12-09T12:52:54.155Z,-0.04
2022-12-09T12:55:23.163Z,-0.04
2022-12-09T12:57:58.659Z,-0.18
2022-12-09T13:00:30.136Z,-0.06
2022-12-09T13:03:09.589Z,-0.06
2022-12-09T13:05:39.320Z,-0.27
2022-12-09T13:08:11.170Z,-0.31
2022-12-09T13:10:43.312Z,-0.39
2022-12-09T13:13:20.205Z,-0.29
2022-12-09T13:15:51.671Z,-0.26
2022-12-09T13:18:26.925Z,-0.34
2022-12-09T13:20:56.291Z,-0.37
2022-12-09T13:23:42.601Z,-0.31
2022-12-09T13:26:23.903Z,-0.29
2022-12-09T13:28:56.503Z,-0.44
2022-12-09T13:31:29.826Z,-0.42
2022-12-09T13:34:11.496Z,-0.46
2022-12-09T13:36:42.953Z,-0.54
2022-12-09T13:39:13.345Z,-0.37
2022-12-09T13:42:01.854Z,-0.32
2022-12-09T13:44:39.910Z,-0.29
2022-12-09T13:47:15.835Z,-0.35
2022-12-09T13:49:54.027Z,-0.50
2022-12-09T13:52:49.892Z,-0.43
2022-12-09T13:55:38.231Z,-0.35
2022-12-09T13:58:31.412Z,-0.57
2022-12-09T14:01:04.790Z,-0.57
2022-12-09T14:03:35.532Z,-0.55
2022-12-09T14:06:19.993Z,-0.73
2022-12-09T14:08:53.446Z,-1.00
2022-12-09T14:11:42.401Z,-0.87
2022-12-09T14:14:56.080Z,-0.75
2022-12-09T14:17:58.062Z,-0.81
2022-12-09T14:20:30.747Z,-0.89
2022-12-09T14:23:21.343Z,-0.94
2022-12-09T14:26:09.148Z,-1.27
2022-12-09T14:28:59.769Z,-1.24
2022-12-09T14:32:05.649Z,-1.27
2022-12-09T14:34:37.472Z,-1.20
2022-12-09T14:37:42.495Z,-1.26
2022-12-09T14:40:38.884Z,-1.28
2022-12-09T14:43:22.499Z,-1.18
2022-12-09T14:45:57.813Z,-1.22
2022-12-09T14:48:28.881Z,-1.30
2022-12-09T14:51:18.532Z,-1.35
2022-12-09T14:53:50.964Z,-1.29
2022-12-09T14:56:24.894Z,-1.31
2022-12-09T14:58:58.671Z,-1.32
2022-12-09T15:01:26.823Z,-1.24
2022-12-09T15:03:57.533Z,-1.22
2022-12-09T15:06:28.373Z,-1.29
2022-12-09T15:08:59.055Z,-1.25
2022-12-09T15:11:31.492Z,-1.18
2022-12-09T15:14:22.655Z,-1.19
2022-12-09T15:16:51.410Z,-1.45
2022-12-09T15:19:51.171Z,-1.35
2022-12-09T15:22:14.879Z,-1.27
2022-12-09T15:24:50.503Z,-1.19
2022-12-09T15:27:23.292Z,-1.42
2022-12-09T15:29:53.118Z,-1.25
2022-12-09T15:32:26.758Z,-1.20
2022-12-09T15:34:56.029Z,-1.22
2022-12-09T15:37:27.816Z,-1.13
2022-12-09T15:40:00.806Z,-1.13
2022-12-09T15:42:35.662Z,-1.22
2022-12-09T15:45:09.746Z,-1.32
2022-12-09T15:47:42.587Z,-1.18
2022-12-09T15:50:18.426Z,-1.24
2022-12-09T15:52:52.229Z,-1.34
2022-12-09T15:55:23.548Z,-1.66
2022-12-09T15:57:54.959Z,-1.57
2022-12-09T16:00:25.671Z,-1.68
2022-12-09T16:02:55.873Z,-1.63
2022-12-09T16:05:26.615Z,-1.60
2022-12-09T16:07:56.620Z,-1.49
2022-12-09T16:10:26.957Z,-1.45
2022-12-09T16:13:12.703Z,-1.36
2022-12-09T16:15:53.282Z,-1.43
2022-12-09T16:18:26.091Z,-1.47
2022-12-09T16:21:03.806Z,-1.69
2022-12-09T16:23:46.753Z,-1.63
2022-12-09T16:26:23.207Z,-1.40
2022-12-09T16:28:57.620Z,-1.57
2022-12-09T16:31:26.260Z,-1.66
2022-12-09T16:33:54.902Z,-1.70
2022-12-09T16:36:28.232Z,-1.50
2022-12-09T16:39:45.747Z,-1.46
2022-12-09T16:42:29.995Z,-1.54
2022-12-09T16:45:32.520Z,-1.62
2022-12-09T16:48:01.494Z,-1.71
2022-12-09T16:50:32.599Z,-1.73
2022-12-09T16:53:13.305Z,-1.71
2022-12-09T16:55:42.467Z,-1.56
2022-12-09T16:58:10.797Z,-1.60
2022-12-09T17:00:40.151Z,-1.51
2022-12-09T17:03:12.133Z,-1.42
2022-12-09T17:05:46.151Z,-1.43
2022-12-09T17:08:15.751Z,-1.48
2022-12-09T17:10:46.729Z,-1.47
2022-12-09T17:13:15.539Z,-1.55
2022-12-09T17:15:45.364Z,-1.63
2022-12-09T17:18:13.581Z,-1.80
2022-12-09T17:20:41.553Z,-1.78
2022-12-09T17:23:10.373Z,-1.66
2022-12-09T17:25:40.634Z,-1.60
2022-12-09T17:28:11.747Z,-1.71
2022-12-09T17:30:43.184Z,-1.63
2022-12-09T17:33:14.516Z,-1.68
2022-12-09T17:35:45.787Z,-1.68
2022-12-09T17:38:15.294Z,-1.58
2022-12-09T17:40:44.500Z,-1.58
2022-12-09T17:43:12.897Z,-1.62
2022-12-09T17:45:42.468Z,-1.45
2022-12-09T17:48:14.577Z,-1.57
2022-12-09T17:50:42.685Z,-1.62
2022-12-09T17:53:12.072Z,-1.69
2022-12-09T17:55:53.024Z,-1.78
2022-12-09T17:58:22.414Z,-1.74
2022-12-09T18:00:50.605Z,-1.88
2022-12-09T18:03:39.280Z,-1.78
2022-12-09T18:06:10.118Z,-1.83
2022-12-09T18:08:40.865Z,-1.75
2022-12-09T18:11:11.706Z,-1.95
2022-12-09T18:13:40.608Z,-1.86
2022-12-09T18:16:10.031Z,-1.65
2022-12-09T18:18:40.135Z,-1.69
2022-12-09T18:21:15.143Z,-1.50
2022-12-09T18:23:45.122Z,-1.58
2022-12-09T18:26:28.568Z,-1.62
2022-12-09T18:28:58.794Z,-1.63
2022-12-09T18:31:26.945Z,-1.62
2022-12-09T18:33:56.348Z,-1.58
2022-12-09T18:36:26.362Z,-1.54
2022-12-09T18:38:57.877Z,-1.45
2022-12-09T18:41:29.181Z,-1.59
2022-12-09T18:43:59.318Z,-1.67
2022-12-09T18:46:29.239Z,-1.83
2022-12-09T18:49:08.708Z,-1.82
2022-12-09T18:51:36.984Z,-1.91
2022-12-09T18:54:06.086Z,-1.88
2022-12-09T18:56:34.850Z,-1.68
2022-12-09T18:59:07.958Z,-1.70
2022-12-09T19:01:40.378Z,-1.71
2022-12-09T19:04:14.214Z,-1.49
2022-12-09T19:06:47.343Z,-1.54
2022-12-09T19:09:17.351Z,-1.81
2022-12-09T19:11:49.701Z,-1.72
2022-12-09T19:14:23.157Z,-1.79
2022-12-09T19:16:51.664Z,-1.83
2022-12-09T19:19:22.799Z,-1.75
2022-12-09T19:21:51.485Z,-1.72
2022-12-09T19:24:22.461Z,-1.74
2022-12-09T19:26:53.288Z,-1.74
2022-12-09T19:29:24.519Z,-1.72
2022-12-09T19:31:53.863Z,-1.59
2022-12-09T19:34:25.550Z,-1.70
2022-12-09T19:36:55.423Z,-1.71
2022-12-09T19:39:29.917Z,-1.61
2022-12-09T19:41:58.696Z,-1.56
2022-12-09T19:47:16.603Z,-1.53
2022-12-09T19:49:48.879Z,-1.71
2022-12-09T19:52:18.296Z,-1.68
2022-12-09T19:54:46.280Z,-1.70
2022-12-09T19:57:17.173Z,-1.58
2022-12-09T19:59:47.354Z,-1.57
2022-12-09T20:02:16.524Z,-1.55
2022-12-09T20:04:49.624Z,-1.52
2022-12-09T20:07:20.488Z,-1.61
2022-12-09T20:09:51.031Z,-1.90
2022-12-09T20:12:19.657Z,-1.82
2022-12-09T20:14:48.897Z,-1.66
2022-12-09T20:17:17.681Z,-1.57
2022-12-09T20:19:46.238Z,-1.46
2022-12-09T20:22:14.229Z,-1.52
2022-12-09T20:24:44.288Z,-1.58
2022-12-09T20:27:13.263Z,-1.56
2022-12-09T20:29:41.264Z,-1.53
2022-12-09T20:32:10.052Z,-1.60
2022-12-09T20:34:38.668Z,-1.59
2022-12-09T20:37:07.327Z,-1.51
2022-12-09T20:39:39.125Z,-1.42
2022-12-09T20:42:08.674Z,-1.49
2022-12-09T20:44:38.188Z,-1.40
2022-12-09T20:47:10.126Z,-1.40
2022-12-09T20:49:38.420Z,-1.36
2022-12-09T20:52:07.019Z,-1.34
2022-12-09T20:54:35.391Z,-1.36
2022-12-09T20:57:03.592Z,-1.48
2022-12-09T20:59:34.138Z,-1.37
2022-12-09T21:02:02.556Z,-1.22
2022-12-09T21:04:32.736Z,-1.26
2022-12-09T21:07:01.003Z,-1.18
2022-12-09T21:09:29.892Z,-1.50
2022-12-09T21:11:58.725Z,-1.43
2022-12-09T21:14:31.152Z,-1.26
2022-12-09T21:17:04.209Z,-1.45
2022-12-09T21:19:33.178Z,-1.25
2022-12-09T21:22:01.463Z,-1.35
2022-12-09T21:24:31.854Z,-1.31
2022-12-09T21:27:00.943Z,-1.31
2022-12-09T21:29:34.766Z,-1.32
2022-12-09T21:32:07.026Z,-1.18
2022-12-09T21:34:35.709Z,-1.26
2022-12-09T21:37:05.226Z,-1.37
2022-12-09T21:39:35.825Z,-1.29
2022-12-09T21:42:05.131Z,-1.38
2022-12-09T21:44:34.195Z,-1.28
2022-12-09T21:47:04.405Z,-1.22
2022-12-09T21:49:33.744Z,-1.05
2022-12-09T21:52:01.887Z,-1.20
2022-12-09T21:54:30.060Z,-1.14
2022-12-09T21:57:00.022Z,-1.00
2022-12-09T21:59:28.201Z,-1.03
2022-12-09T22:01:56.585Z,-1.05
2022-12-09T22:04:25.963Z,-1.06
2022-12-09T22:06:54.817Z,-1.06
2022-12-09T22:09:24.573Z,-1.08
2022-12-09T22:11:53.876Z,-1.03
2022-12-09T22:14:24.586Z,-1.04
2022-12-09T22:16:54.195Z,-1.05
2022-12-09T22:19:26.576Z,-1.05
2022-12-09T22:21:54.610Z,-1.07
2022-12-09T22:24:26.046Z,-1.07
2022-12-09T22:26:54.242Z,-1.10
2022-12-09T22:29:23.264Z,-1.10
2022-12-09T22:31:52.291Z,-1.14
2022-12-09T22:34:22.739Z,-1.22
2022-12-09T22:36:55.372Z,-1.32
2022-12-09T22:39:24.993Z,-1.25
2022-12-09T22:41:55.537Z,-1.30
2022-12-09T22:44:25.017Z,-1.28
2022-12-09T22:46:54.709Z,-1.21
2022-12-09T22:49:23.080Z,-1.22
2022-12-09T22:51:57.761Z,-1.19
2022-12-09T22:54:31.655Z,-1.28
2022-12-09T22:57:00.172Z,-1.23
2022-12-09T22:59:28.409Z,-1.28
2022-12-09T23:01:57.201Z,-1.30
2022-12-09T23:04:25.231Z,-1.30
2022-12-09T23:06:57.869Z,-1.31
2022-12-09T23:09:26.443Z,-1.30
2022-12-09T23:11:55.619Z,-1.41
2022-12-09T23:14:24.397Z,-1.47
2022-12-09T23:16:52.539Z,-1.42
2022-12-09T23:19:23.814Z,-1.40
2022-12-09T23:21:54.010Z,-1.39
2022-12-09T23:24:25.068Z,-1.58
2022-12-09T23:26:55.691Z,-1.62
2022-12-09T23:29:24.080Z,-1.66
2022-12-09T23:31:53.307Z,-1.64
2022-12-09T23:34:23.891Z,-1.68
2022-12-09T23:36:52.498Z,-1.68
2022-12-09T23:39:21.059Z,-1.65
2022-12-09T23:41:53.527Z,-1.60
2022-12-09T23:44:22.879Z,-1.61
2022-12-09T23:46:52.148Z,-1.62
2022-12-09T23:49:21.815Z,-1.55
2022-12-09T23:51:51.755Z,-1.57
2022-12-09T23:54:23.057Z,-1.55
2022-12-09T23:56:52.864Z,-1.54
2022-12-09T23:59:23.504Z,-1.52
